sensor_id;sensor_type;location;lat;lon;timestamp;pressure;altitude;pressure_sealevel;temperature;humidity
51928;BME280;37953;52.806;18.270;2024-01-15T00:00:56;98257.63;;;2.68;100.00
51928;BME280;37953;52.806;18.270;2024-01-15T00:03:42;98257.63;;;2.68;100.00
51928;BME280;37953;52.806;18.270;2024-01-15T00:06:14;98255.06;;;2.68;100.00
51928;BME280;37953;52.806;18.270;2024-01-15T00:08:40;98252.50;;;2.66;100.00
51928;BME280;37953;52.806;18.270;2024-01-15T00:11:06;98253.38;;;2.65;100.00
51928;BME280;37953;52.806;18.270;2024-01-15T00:13:32;98248.25;;;2.63;100.00
51928;BME280;37953;52.806;18.270;2024-01-15T00:15:58;98242.25;;;2.61;100.00
51928;BME280;37953;52.806;18.270;2024-01-15T00:18:24;98234.56;;;2.60;100.00
51928;BME280;37953;52.806;18.270;2024-01-15T00:20:49;98238.00;;;2.59;100.00
51928;BME280;37953;52.806;18.270;2024-01-15T00:23:15;98230.31;;;2.59;100.00
51928;BME280;37953;52.806;18.270;2024-01-15T00:25:41;98233.72;;;2.59;100.00
51928;BME280;37953;52.806;18.270;2024-01-15T00:28:07;98225.19;;;2.59;100.00
51928;BME280;37953;52.806;18.270;2024-01-15T00:30:33;98212.38;;;2.57;100.00
51928;BME280;37953;52.806;18.270;2024-01-15T00:32:59;98214.09;;;2.58;100.00
51928;BME280;37953;52.806;18.270;2024-01-15T00:35:25;98209.81;;;2.59;100.00
51928;BME280;37953;52.806;18.270;2024-01-15T00:37:51;98202.13;;;2.57;100.00
51928;BME280;37953;52.806;18.270;2024-01-15T00:40:17;98196.16;;;2.58;100.00
51928;BME280;37953;52.806;18.270;2024-01-15T00:42:43;98196.16;;;2.58;100.00
51928;BME280;37953;52.806;18.270;2024-01-15T00:45:09;98190.13;;;2.58;100.00
51928;BME280;37953;52.806;18.270;2024-01-15T00:47:35;98189.31;;;2.59;100.00
51928;BME280;37953;52.806;18.270;2024-01-15T00:50:01;98176.50;;;2.59;100.00
51928;BME280;37953;52.806;18.270;2024-01-15T00:52:27;98185.00;;;2.58;100.00
51928;BME280;37953;52.806;18.270;2024-01-15T00:54:53;98175.66;;;2.58;100.00
51928;BME280;37953;52.806;18.270;2024-01-15T00:57:19;98167.94;;;2.58;100.00
51928;BME280;37953;52.806;18.270;2024-01-15T00:59:51;98164.50;;;2.59;100.00
51928;BME280;37953;52.806;18.270;2024-01-15T01:02:17;98163.69;;;2.59;100.00
51928;BME280;37953;52.806;18.270;2024-01-15T01:04:43;98157.69;;;2.58;100.00
51928;BME280;37953;52.806;18.270;2024-01-15T01:07:09;98158.53;;;2.59;100.00
51928;BME280;37953;52.806;18.270;2024-01-15T01:09:34;98154.25;;;2.59;100.00
51928;BME280;37953;52.806;18.270;2024-01-15T01:12:00;98153.41;;;2.59;100.00
51928;BME280;37953;52.806;18.270;2024-01-15T01:14:26;98148.28;;;2.59;100.00
51928;BME280;37953;52.806;18.270;2024-01-15T01:16:52;98138.88;;;2.59;100.00
51928;BME280;37953;52.806;18.270;2024-01-15T01:19:18;98126.94;;;2.58;100.00
51928;BME280;37953;52.806;18.270;2024-01-15T01:21:44;98125.22;;;2.59;100.00
51928;BME280;37953;52.806;18.270;2024-01-15T01:24:12;98137.19;;;2.58;100.00
51928;BME280;37953;52.806;18.270;2024-01-15T01:26:38;98122.66;;;2.59;100.00
51928;BME280;37953;52.806;18.270;2024-01-15T01:29:04;98116.69;;;2.58;100.00
51928;BME280;37953;52.806;18.270;2024-01-15T01:31:30;98120.94;;;2.58;100.00
51928;BME280;37953;52.806;18.270;2024-01-15T01:33:56;98125.22;;;2.59;100.00
51928;BME280;37953;52.806;18.270;2024-01-15T01:36:22;98114.97;;;2.59;100.00
51928;BME280;37953;52.806;18.270;2024-01-15T01:38:48;98109.84;;;2.59;100.00
51928;BME280;37953;52.806;18.270;2024-01-15T01:41:14;98114.13;;;2.58;100.00
51928;BME280;37953;52.806;18.270;2024-01-15T01:43:40;98103.00;;;2.58;100.00
51928;BME280;37953;52.806;18.270;2024-01-15T01:46:06;98094.47;;;2.57;100.00
51928;BME280;37953;52.806;18.270;2024-01-15T01:48:33;98097.03;;;2.57;100.00
51928;BME280;37953;52.806;18.270;2024-01-15T01:51:02;98091.06;;;2.57;100.00
51928;BME280;37953;52.806;18.270;2024-01-15T01:53:29;98090.22;;;2.56;100.00
51928;BME280;37953;52.806;18.270;2024-01-15T01:55:57;98073.97;;;2.57;100.00
51928;BME280;37953;52.806;18.270;2024-01-15T01:58:23;98076.53;;;2.56;100.00
51928;BME280;37953;52.806;18.270;2024-01-15T02:00:51;98067.16;;;2.55;100.00
51928;BME280;37953;52.806;18.270;2024-01-15T02:03:17;98065.44;;;2.54;100.00
51928;BME280;37953;52.806;18.270;2024-01-15T02:05:43;98055.19;;;2.52;100.00
51928;BME280;37953;52.806;18.270;2024-01-15T02:08:10;98066.28;;;2.51;100.00
51928;BME280;37953;52.806;18.270;2024-01-15T02:10:36;98047.50;;;2.51;100.00
51928;BME280;37953;52.806;18.270;2024-01-15T02:13:02;98049.19;;;2.52;100.00
51928;BME280;37953;52.806;18.270;2024-01-15T02:15:28;98050.91;;;2.51;100.00
51928;BME280;37953;52.806;18.270;2024-01-15T02:20:25;98037.25;;;2.51;100.00
51928;BME280;37953;52.806;18.270;2024-01-15T02:22:51;98031.28;;;2.47;100.00
51928;BME280;37953;52.806;18.270;2024-01-15T02:25:18;98034.69;;;2.48;100.00
51928;BME280;37953;52.806;18.270;2024-01-15T02:27:44;98028.72;;;2.49;100.00
51928;BME280;37953;52.806;18.270;2024-01-15T02:30:13;98039.81;;;2.52;100.00
51928;BME280;37953;52.806;18.270;2024-01-15T02:32:39;98026.16;;;2.50;100.00
51928;BME280;37953;52.806;18.270;2024-01-15T02:35:05;98028.69;;;2.52;100.00
51928;BME280;37953;52.806;18.270;2024-01-15T02:37:31;98008.22;;;2.49;100.00
51928;BME280;37953;52.806;18.270;2024-01-15T02:39:57;98015.03;;;2.50;100.00
51928;BME280;37953;52.806;18.270;2024-01-15T02:42:23;98006.50;;;2.48;100.00
51928;BME280;37953;52.806;18.270;2024-01-15T02:44:49;98016.75;;;2.49;100.00
51928;BME280;37953;52.806;18.270;2024-01-15T02:47:15;98012.50;;;2.48;100.00
51928;BME280;37953;52.806;18.270;2024-01-15T02:49:41;97998.81;;;2.48;100.00
51928;BME280;37953;52.806;18.270;2024-01-15T02:52:07;98005.66;;;2.50;100.00
51928;BME280;37953;52.806;18.270;2024-01-15T02:54:33;98007.38;;;2.48;100.00
51928;BME280;37953;52.806;18.270;2024-01-15T02:56:59;97999.69;;;2.48;100.00
51928;BME280;37953;52.806;18.270;2024-01-15T02:59:24;98000.53;;;2.49;100.00
51928;BME280;37953;52.806;18.270;2024-01-15T03:01:50;97998.84;;;2.46;100.00
51928;BME280;37953;52.806;18.270;2024-01-15T03:04:16;97987.72;;;2.47;100.00
51928;BME280;37953;52.806;18.270;2024-01-15T03:06:42;97978.38;;;2.41;100.00
51928;BME280;37953;52.806;18.270;2024-01-15T03:09:08;97977.50;;;2.42;100.00
51928;BME280;37953;52.806;18.270;2024-01-15T03:11:40;97976.66;;;2.43;100.00
51928;BME280;37953;52.806;18.270;2024-01-15T03:14:06;97965.56;;;2.38;100.00
51928;BME280;37953;52.806;18.270;2024-01-15T03:16:32;97972.38;;;2.41;100.00
51928;BME280;37953;52.806;18.270;2024-01-15T03:18:58;97968.97;;;2.43;100.00
51928;BME280;37953;52.806;18.270;2024-01-15T03:21:24;97965.56;;;2.41;100.00
51928;BME280;37953;52.806;18.270;2024-01-15T03:23:50;97967.25;;;2.41;100.00
51928;BME280;37953;52.806;18.270;2024-01-15T03:26:16;97956.16;;;2.40;100.00
51928;BME280;37953;52.806;18.270;2024-01-15T03:28:42;97968.13;;;2.41;100.00
51928;BME280;37953;52.806;18.270;2024-01-15T03:31:08;97959.56;;;2.42;100.00
51928;BME280;37953;52.806;18.270;2024-01-15T03:33:40;97947.59;;;2.44;100.00
51928;BME280;37953;52.806;18.270;2024-01-15T03:36:06;97937.34;;;2.43;100.00
51928;BME280;37953;52.806;18.270;2024-01-15T03:38:32;97928.81;;;2.44;100.00
51928;BME280;37953;52.806;18.270;2024-01-15T03:40:58;97928.81;;;2.42;100.00
51928;BME280;37953;52.806;18.270;2024-01-15T03:43:24;97931.38;;;2.44;100.00
51928;BME280;37953;52.806;18.270;2024-01-15T03:45:50;97923.69;;;2.44;100.00
51928;BME280;37953;52.806;18.270;2024-01-15T03:48:15;97926.25;;;2.44;100.00
51928;BME280;37953;52.806;18.270;2024-01-15T03:50:41;97918.56;;;2.46;100.00
51928;BME280;37953;52.806;18.270;2024-01-15T03:53:07;97926.25;;;2.46;100.00
51928;BME280;37953;52.806;18.270;2024-01-15T03:55:33;97909.16;;;2.44;100.00
51928;BME280;37953;52.806;18.270;2024-01-15T03:57:59;97918.56;;;2.46;100.00
51928;BME280;37953;52.806;18.270;2024-01-15T04:00:25;97910.00;;;2.45;100.00
51928;BME280;37953;52.806;18.270;2024-01-15T04:02:51;97906.59;;;2.44;100.00
51928;BME280;37953;52.806;18.270;2024-01-15T04:05:17;97902.34;;;2.42;100.00
51928;BME280;37953;52.806;18.270;2024-01-15T04:07:43;97895.50;;;2.41;100.00
51928;BME280;37953;52.806;18.270;2024-01-15T04:10:09;97890.41;;;2.39;100.00
51928;BME280;37953;52.806;18.270;2024-01-15T04:12:35;97881.84;;;2.39;100.00
51928;BME280;37953;52.806;18.270;2024-01-15T04:15:01;97879.28;;;2.39;100.00
51928;BME280;37953;52.806;18.270;2024-01-15T04:17:27;97882.72;;;2.38;100.00
51928;BME280;37953;52.806;18.270;2024-01-15T04:19:53;97879.34;;;2.34;100.00
51928;BME280;37953;52.806;18.270;2024-01-15T04:22:19;97871.66;;;2.34;100.00
51928;BME280;37953;52.806;18.270;2024-01-15T04:24:45;97862.28;;;2.32;100.00
51928;BME280;37953;52.806;18.270;2024-01-15T04:27:13;97869.97;;;2.33;100.00
51928;BME280;37953;52.806;18.270;2024-01-15T04:29:39;97856.31;;;2.31;100.00
51928;BME280;37953;52.806;18.270;2024-01-15T04:32:05;97852.06;;;2.29;100.00
51928;BME280;37953;52.806;18.270;2024-01-15T04:34:32;97866.56;;;2.30;100.00
51928;BME280;37953;52.806;18.270;2024-01-15T04:36:57;97864.00;;;2.28;100.00
51928;BME280;37953;52.806;18.270;2024-01-15T04:39:23;97848.63;;;2.28;100.00
51928;BME280;37953;52.806;18.270;2024-01-15T04:41:49;97843.53;;;2.27;100.00
51928;BME280;37953;52.806;18.270;2024-01-15T04:44:15;97840.09;;;2.26;100.00
51928;BME280;37953;52.806;18.270;2024-01-15T04:46:41;97841.81;;;2.26;100.00
51928;BME280;37953;52.806;18.270;2024-01-15T04:49:10;97838.41;;;2.23;100.00
51928;BME280;37953;52.806;18.270;2024-01-15T04:51:35;97837.56;;;2.24;100.00
51928;BME280;37953;52.806;18.270;2024-01-15T04:54:02;97837.56;;;2.23;100.00
51928;BME280;37953;52.806;18.270;2024-01-15T04:56:28;97837.56;;;2.20;100.00
51928;BME280;37953;52.806;18.270;2024-01-15T04:58:53;97842.69;;;2.20;100.00
51928;BME280;37953;52.806;18.270;2024-01-15T05:01:30;97829.03;;;2.18;100.00
51928;BME280;37953;52.806;18.270;2024-01-15T05:03:56;97835.88;;;2.19;100.00
51928;BME280;37953;52.806;18.270;2024-01-15T05:06:23;97835.03;;;2.18;100.00
51928;BME280;37953;52.806;18.270;2024-01-15T05:08:49;97829.94;;;2.18;100.00
51928;BME280;37953;52.806;18.270;2024-01-15T05:11:14;97834.19;;;2.16;100.00
51928;BME280;37953;52.806;18.270;2024-01-15T05:13:40;97815.41;;;2.16;100.00
51928;BME280;37953;52.806;18.270;2024-01-15T05:16:06;97824.81;;;2.17;100.00
51928;BME280;37953;52.806;18.270;2024-01-15T05:18:33;97825.66;;;2.16;100.00
51928;BME280;37953;52.806;18.270;2024-01-15T05:20:59;97818.84;;;2.15;100.00
51928;BME280;37953;52.806;18.270;2024-01-15T05:23:25;97812.84;;;2.16;100.00
51928;BME280;37953;52.806;18.270;2024-01-15T05:25:50;97816.28;;;2.16;100.00
51928;BME280;37953;52.806;18.270;2024-01-15T05:28:17;97809.44;;;2.14;100.00
51928;BME280;37953;52.806;18.270;2024-01-15T05:30:43;97822.25;;;2.17;100.00
51928;BME280;37953;52.806;18.270;2024-01-15T05:33:09;97820.53;;;2.17;100.00
51928;BME280;37953;52.806;18.270;2024-01-15T05:35:34;97823.97;;;2.16;100.00
51928;BME280;37953;52.806;18.270;2024-01-15T05:38:00;97826.47;;;2.18;100.00
51928;BME280;37953;52.806;18.270;2024-01-15T05:40:26;97829.94;;;2.18;100.00
51928;BME280;37953;52.806;18.270;2024-01-15T05:42:52;97830.75;;;2.19;100.00
51928;BME280;37953;52.806;18.270;2024-01-15T05:45:18;97843.56;;;2.20;100.00
51928;BME280;37953;52.806;18.270;2024-01-15T05:47:44;97833.34;;;2.14;100.00
51928;BME280;37953;52.806;18.270;2024-01-15T05:50:10;97843.53;;;2.22;100.00
51928;BME280;37953;52.806;18.270;2024-01-15T05:52:36;97835.03;;;2.18;100.00
51928;BME280;37953;52.806;18.270;2024-01-15T05:55:02;97844.41;;;2.21;100.00
51928;BME280;37953;52.806;18.270;2024-01-15T05:57:29;97847.81;;;2.21;100.00
51928;BME280;37953;52.806;18.270;2024-01-15T05:59:54;97835.00;;;2.23;100.00
51928;BME280;37953;52.806;18.270;2024-01-15T06:02:21;97849.53;;;2.22;100.00
51928;BME280;37953;52.806;18.270;2024-01-15T06:04:46;97840.13;;;2.23;100.00
51928;BME280;37953;52.806;18.270;2024-01-15T06:07:12;97840.97;;;2.22;100.00
51928;BME280;37953;52.806;18.270;2024-01-15T06:09:38;97837.56;;;2.20;100.00
51928;BME280;37953;52.806;18.270;2024-01-15T06:12:06;97833.31;;;2.19;100.00
51928;BME280;37953;52.806;18.270;2024-01-15T06:14:32;97839.28;;;2.18;100.00
51928;BME280;37953;52.806;18.270;2024-01-15T06:16:58;97847.00;;;2.16;100.00
51928;BME280;37953;52.806;18.270;2024-01-15T06:19:24;97841.88;;;2.16;100.00
51928;BME280;37953;52.806;18.270;2024-01-15T06:21:50;97834.16;;;2.18;100.00
51928;BME280;37953;52.806;18.270;2024-01-15T06:24:16;97840.16;;;2.17;100.00
51928;BME280;37953;52.806;18.270;2024-01-15T06:26:43;97839.31;;;2.16;100.00
51928;BME280;37953;52.806;18.270;2024-01-15T06:29:09;97841.88;;;2.16;100.00
51928;BME280;37953;52.806;18.270;2024-01-15T06:31:35;97839.31;;;2.15;100.00
51928;BME280;37953;52.806;18.270;2024-01-15T06:34:01;97836.75;;;2.16;100.00
51928;BME280;37953;52.806;18.270;2024-01-15T06:36:27;97832.47;;;2.17;100.00
51928;BME280;37953;52.806;18.270;2024-01-15T06:38:53;97834.19;;;2.16;100.00
51928;BME280;37953;52.806;18.270;2024-01-15T06:41:19;97829.03;;;2.18;100.00
51928;BME280;37953;52.806;18.270;2024-01-15T06:43:44;97823.97;;;2.16;100.00
51928;BME280;37953;52.806;18.270;2024-01-15T06:46:11;97833.31;;;2.17;100.00
51928;BME280;37953;52.806;18.270;2024-01-15T06:48:36;97825.66;;;2.17;100.00
51928;BME280;37953;52.806;18.270;2024-01-15T06:51:03;97834.16;;;2.18;100.00
51928;BME280;37953;52.806;18.270;2024-01-15T06:53:29;97828.22;;;2.17;100.00
51928;BME280;37953;52.806;18.270;2024-01-15T06:55:55;97822.25;;;2.17;100.00
51928;BME280;37953;52.806;18.270;2024-01-15T06:58:20;97828.22;;;2.17;100.00
51928;BME280;37953;52.806;18.270;2024-01-15T07:00:46;97832.47;;;2.18;100.00
51928;BME280;37953;52.806;18.270;2024-01-15T07:03:12;97835.00;;;2.20;100.00
51928;BME280;37953;52.806;18.270;2024-01-15T07:05:38;97838.44;;;2.20;100.00
51928;BME280;37953;52.806;18.270;2024-01-15T07:08:04;97841.84;;;2.19;100.00
51928;BME280;37953;52.806;18.270;2024-01-15T07:10:30;97846.97;;;2.18;100.00
51928;BME280;37953;52.806;18.270;2024-01-15T07:12:56;97841.00;;;2.17;100.00
51928;BME280;37953;52.806;18.270;2024-01-15T07:15:22;97846.13;;;2.17;100.00
51928;BME280;37953;52.806;18.270;2024-01-15T07:17:48;97845.28;;;2.17;100.00
51928;BME280;37953;52.806;18.270;2024-01-15T07:20:14;97846.13;;;2.16;100.00
51928;BME280;37953;52.806;18.270;2024-01-15T07:22:41;97838.44;;;2.16;100.00
51928;BME280;37953;52.806;18.270;2024-01-15T07:25:07;97838.44;;;2.17;100.00
51928;BME280;37953;52.806;18.270;2024-01-15T07:27:33;97841.00;;;2.17;100.00
51928;BME280;37953;52.806;18.270;2024-01-15T07:29:59;97849.53;;;2.18;100.00
51928;BME280;37953;52.806;18.270;2024-01-15T07:32:25;97845.28;;;2.18;100.00
51928;BME280;37953;52.806;18.270;2024-01-15T07:34:51;97843.56;;;2.19;100.00
51928;BME280;37953;52.806;18.270;2024-01-15T07:37:17;97841.84;;;2.19;100.00
51928;BME280;37953;52.806;18.270;2024-01-15T07:39:43;97843.56;;;2.20;100.00
51928;BME280;37953;52.806;18.270;2024-01-15T07:42:09;97842.69;;;2.20;100.00
51928;BME280;37953;52.806;18.270;2024-01-15T07:44:35;97848.69;;;2.20;100.00
51928;BME280;37953;52.806;18.270;2024-01-15T07:47:00;97842.69;;;2.20;100.00
51928;BME280;37953;52.806;18.270;2024-01-15T07:49:26;97845.25;;;2.20;100.00
51928;BME280;37953;52.806;18.270;2024-01-15T07:51:52;97856.38;;;2.19;100.00
51928;BME280;37953;52.806;18.270;2024-01-15T07:54:18;97843.56;;;2.17;100.00
51928;BME280;37953;52.806;18.270;2024-01-15T07:56:57;97841.84;;;2.18;100.00
51928;BME280;37953;52.806;18.270;2024-01-15T07:59:29;97844.41;;;2.18;100.00
51928;BME280;37953;52.806;18.270;2024-01-15T08:01:55;97831.63;;;2.16;100.00
51928;BME280;37953;52.806;18.270;2024-01-15T08:04:21;97837.59;;;2.17;100.00
51928;BME280;37953;52.806;18.270;2024-01-15T08:06:50;97832.47;;;2.17;100.00
51928;BME280;37953;52.806;18.270;2024-01-15T08:09:16;97826.53;;;2.16;100.00
51928;BME280;37953;52.806;18.270;2024-01-15T08:11:42;97834.19;;;2.15;100.00
51928;BME280;37953;52.806;18.270;2024-01-15T08:14:09;97825.66;;;2.16;100.00
51928;BME280;37953;52.806;18.270;2024-01-15T08:16:36;97826.53;;;2.16;100.00
51928;BME280;37953;52.806;18.270;2024-01-15T08:19:02;97827.38;;;2.17;100.00
51928;BME280;37953;52.806;18.270;2024-01-15T08:21:28;97818.81;;;2.18;100.00
51928;BME280;37953;52.806;18.270;2024-01-15T08:23:59;97821.38;;;2.19;100.00
51928;BME280;37953;52.806;18.270;2024-01-15T08:26:26;97823.09;;;2.20;100.00
51928;BME280;37953;52.806;18.270;2024-01-15T08:28:52;97817.09;;;2.21;100.00
51928;BME280;37953;52.806;18.270;2024-01-15T08:31:18;97836.72;;;2.21;100.00
51928;BME280;37953;52.806;18.270;2024-01-15T08:33:44;97832.44;;;2.20;100.00
51928;BME280;37953;52.806;18.270;2024-01-15T08:36:10;97839.28;;;2.21;100.00
51928;BME280;37953;52.806;18.270;2024-01-15T08:38:36;97834.16;;;2.18;100.00
51928;BME280;37953;52.806;18.270;2024-01-15T08:41:02;97823.94;;;2.18;100.00
51928;BME280;37953;52.806;18.270;2024-01-15T08:43:28;97829.03;;;2.22;100.00
51928;BME280;37953;52.806;18.270;2024-01-15T08:45:54;97836.72;;;2.22;100.00
51928;BME280;37953;52.806;18.270;2024-01-15T08:48:19;97833.28;;;2.23;100.00
51928;BME280;37953;52.806;18.270;2024-01-15T08:50:45;97831.59;;;2.22;100.00
51928;BME280;37953;52.806;18.270;2024-01-15T08:53:12;97824.78;;;2.20;100.00
51928;BME280;37953;52.806;18.270;2024-01-15T08:55:38;97823.88;;;2.26;100.00
51928;BME280;37953;52.806;18.270;2024-01-15T08:58:04;97815.31;;;2.28;100.00
51928;BME280;37953;52.806;18.270;2024-01-15T09:00:32;97834.13;;;2.29;100.00
51928;BME280;37953;52.806;18.270;2024-01-15T09:02:57;97826.44;;;2.27;100.00
51928;BME280;37953;52.806;18.270;2024-01-15T09:05:23;97825.56;;;2.28;100.00
51928;BME280;37953;52.806;18.270;2024-01-15T09:07:49;97823.00;;;2.28;100.00
51928;BME280;37953;52.806;18.270;2024-01-15T09:10:22;97820.44;;;2.28;100.00
51928;BME280;37953;52.806;18.270;2024-01-15T09:12:47;97825.56;;;2.30;100.00
51928;BME280;37953;52.806;18.270;2024-01-15T09:15:15;97813.63;;;2.29;100.00
51928;BME280;37953;52.806;18.270;2024-01-15T09:17:47;97820.44;;;2.31;100.00
51928;BME280;37953;52.806;18.270;2024-01-15T09:20:13;97810.19;;;2.31;100.00
51928;BME280;37953;52.806;18.270;2024-01-15T09:22:39;97825.56;;;2.31;100.00
51928;BME280;37953;52.806;18.270;2024-01-15T09:25:08;97808.47;;;2.32;100.00
51928;BME280;37953;52.806;18.270;2024-01-15T09:27:35;97809.31;;;2.34;100.00
51928;BME280;37953;52.806;18.270;2024-01-15T09:30:02;97811.88;;;2.34;100.00
51928;BME280;37953;52.806;18.270;2024-01-15T09:32:28;97794.78;;;2.33;100.00
51928;BME280;37953;52.806;18.270;2024-01-15T09:34:54;97811.03;;;2.32;100.00
51928;BME280;37953;52.806;18.270;2024-01-15T09:37:21;97793.94;;;2.31;100.00
51928;BME280;37953;52.806;18.270;2024-01-15T09:39:47;97807.63;;;2.31;100.00
51928;BME280;37953;52.806;18.270;2024-01-15T09:42:14;97793.13;;;2.30;100.00
51928;BME280;37953;52.806;18.270;2024-01-15T09:44:41;97793.13;;;2.30;100.00
51928;BME280;37953;52.806;18.270;2024-01-15T09:47:07;97787.16;;;2.30;100.00
51928;BME280;37953;52.806;18.270;2024-01-15T09:49:33;97787.97;;;2.32;100.00
51928;BME280;37953;52.806;18.270;2024-01-15T09:52:00;97783.69;;;2.34;100.00
51928;BME280;37953;52.806;18.270;2024-01-15T09:54:27;97774.28;;;2.34;100.00
51928;BME280;37953;52.806;18.270;2024-01-15T09:56:54;97781.13;;;2.34;100.00
51928;BME280;37953;52.806;18.270;2024-01-15T09:59:22;97781.97;;;2.36;100.00
51928;BME280;37953;52.806;18.270;2024-01-15T10:01:50;97776.00;;;2.35;100.00
51928;BME280;37953;52.806;18.270;2024-01-15T10:04:16;97771.72;;;2.36;100.00
51928;BME280;37953;52.806;18.270;2024-01-15T10:06:45;97776.84;;;2.36;100.00
51928;BME280;37953;52.806;18.270;2024-01-15T10:09:24;97776.84;;;2.36;100.00
51928;BME280;37953;52.806;18.270;2024-01-15T10:11:50;97768.34;;;2.32;100.00
51928;BME280;37953;52.806;18.270;2024-01-15T10:14:16;97767.44;;;2.36;100.00
51928;BME280;37953;52.806;18.270;2024-01-15T10:16:42;97777.69;;;2.36;100.00
51928;BME280;37953;52.806;18.270;2024-01-15T10:19:08;97789.66;;;2.37;100.00
51928;BME280;37953;52.806;18.270;2024-01-15T10:21:35;97789.66;;;2.34;100.00
51928;BME280;37953;52.806;18.270;2024-01-15T10:24:02;97782.84;;;2.33;100.00
51928;BME280;37953;52.806;18.270;2024-01-15T10:26:29;97781.19;;;2.29;100.00
51928;BME280;37953;52.806;18.270;2024-01-15T10:28:55;97788.88;;;2.26;100.00
51928;BME280;37953;52.806;18.270;2024-01-15T10:31:25;97788.03;;;2.26;100.00
51928;BME280;37953;52.806;18.270;2024-01-15T10:33:51;97780.38;;;2.22;100.00
51928;BME280;37953;52.806;18.270;2024-01-15T10:36:18;97776.09;;;2.21;100.00
51928;BME280;37953;52.806;18.270;2024-01-15T10:38:50;97781.22;;;2.21;100.00
51928;BME280;37953;52.806;18.270;2024-01-15T10:41:16;97782.94;;;2.21;100.00
51928;BME280;37953;52.806;18.270;2024-01-15T10:43:42;97786.38;;;2.18;100.00
51928;BME280;37953;52.806;18.270;2024-01-15T10:46:08;97786.38;;;2.18;100.00
51928;BME280;37953;52.806;18.270;2024-01-15T10:48:34;97788.06;;;2.18;100.00
51928;BME280;37953;52.806;18.270;2024-01-15T10:51:01;97773.63;;;2.12;100.00
51928;BME280;37953;52.806;18.270;2024-01-15T10:53:39;97785.50;;;2.19;100.00
51928;BME280;37953;52.806;18.270;2024-01-15T10:56:10;97788.91;;;2.20;100.00
51928;BME280;37953;52.806;18.270;2024-01-15T10:58:43;97782.06;;;2.22;100.00
51928;BME280;37953;52.806;18.270;2024-01-15T11:01:10;97783.78;;;2.20;100.00
51928;BME280;37953;52.806;18.270;2024-01-15T11:03:37;97780.38;;;2.21;100.00
51928;BME280;37953;52.806;18.270;2024-01-15T11:06:24;97787.19;;;2.25;100.00
51928;BME280;37953;52.806;18.270;2024-01-15T11:08:52;97776.06;;;2.28;100.00
51928;BME280;37953;52.806;18.270;2024-01-15T11:11:18;97777.75;;;2.30;100.00
51928;BME280;37953;52.806;18.270;2024-01-15T11:13:47;97776.00;;;2.34;100.00
51928;BME280;37953;52.806;18.270;2024-01-15T11:16:16;97776.84;;;2.34;100.00
51928;BME280;37953;52.806;18.270;2024-01-15T11:21:23;97780.22;;;2.46;100.00
51928;BME280;37953;52.806;18.270;2024-01-15T11:24:00;97765.63;;;2.49;100.00
51928;BME280;37953;52.806;18.270;2024-01-15T11:29:10;97772.44;;;2.52;100.00
51928;BME280;37953;52.806;18.270;2024-01-15T11:34:08;97769.03;;;2.53;100.00
51928;BME280;37953;52.806;18.270;2024-01-15T11:41:59;97751.03;;;2.57;100.00
51928;BME280;37953;52.806;18.270;2024-01-15T11:44:26;97756.22;;;2.54;100.00
51928;BME280;37953;52.806;18.270;2024-01-15T11:47:03;97730.59;;;2.54;100.00
51928;BME280;37953;52.806;18.270;2024-01-15T11:52:17;97755.31;;;2.57;100.00
51928;BME280;37953;52.806;18.270;2024-01-15T11:55:00;97739.94;;;2.57;100.00
51928;BME280;37953;52.806;18.270;2024-01-15T11:57:54;97743.34;;;2.59;100.00
51928;BME280;37953;52.806;18.270;2024-01-15T12:00:21;97739.13;;;2.56;100.00
51928;BME280;37953;52.806;18.270;2024-01-15T12:02:48;97751.06;;;2.56;100.00
51928;BME280;37953;52.806;18.270;2024-01-15T12:05:23;97760.44;;;2.58;100.00
51928;BME280;37953;52.806;18.270;2024-01-15T12:07:50;97755.31;;;2.58;100.00
51928;BME280;37953;52.806;18.270;2024-01-15T12:10:18;97761.28;;;2.59;100.00
51928;BME280;37953;52.806;18.270;2024-01-15T12:12:56;97763.81;;;2.63;100.00
51928;BME280;37953;52.806;18.270;2024-01-15T12:15:24;97756.97;;;2.64;100.00
51928;BME280;37953;52.806;18.270;2024-01-15T12:17:57;97756.91;;;2.69;100.00
51928;BME280;37953;52.806;18.270;2024-01-15T12:20:24;97750.06;;;2.71;100.00
51928;BME280;37953;52.806;18.270;2024-01-15T12:22:50;97756.06;;;2.71;100.00
51928;BME280;37953;52.806;18.270;2024-01-15T12:25:16;97761.16;;;2.73;100.00
51928;BME280;37953;52.806;18.270;2024-01-15T12:27:42;97757.75;;;2.72;100.00
51928;BME280;37953;52.806;18.270;2024-01-15T12:30:13;97747.53;;;2.69;100.00
51928;BME280;37953;52.806;18.270;2024-01-15T12:32:42;97736.41;;;2.70;100.00
51928;BME280;37953;52.806;18.270;2024-01-15T12:35:10;97755.22;;;2.69;100.00
51928;BME280;37953;52.806;18.270;2024-01-15T12:37:42;97758.63;;;2.68;100.00
51928;BME280;37953;52.806;18.270;2024-01-15T12:40:10;97752.66;;;2.68;100.00
51928;BME280;37953;52.806;18.270;2024-01-15T12:42:44;97757.78;;;2.68;100.00
51928;BME280;37953;52.806;18.270;2024-01-15T12:45:12;97765.47;;;2.68;100.00
51928;BME280;37953;52.806;18.270;2024-01-15T12:47:41;97760.38;;;2.64;100.00
51928;BME280;37953;52.806;18.270;2024-01-15T12:50:14;97764.59;;;2.69;100.00
51928;BME280;37953;52.806;18.270;2024-01-15T12:52:40;97770.63;;;2.66;100.00
51928;BME280;37953;52.806;18.270;2024-01-15T12:55:08;97753.56;;;2.62;100.00
51928;BME280;37953;52.806;18.270;2024-01-15T12:57:35;97758.72;;;2.60;100.00
51928;BME280;37953;52.806;18.270;2024-01-15T13:00:02;97763.84;;;2.59;100.00
51928;BME280;37953;52.806;18.270;2024-01-15T13:02:33;97760.47;;;2.57;100.00
51928;BME280;37953;52.806;18.270;2024-01-15T13:04:59;97769.03;;;2.53;100.00
51928;BME280;37953;52.806;18.270;2024-01-15T13:07:31;97778.44;;;2.52;100.00